Time;durP1;ratioP1;P1;durP2;ratioP2;P2;SDS_P1;SDS_P2;PMS_P1;PMS_P2;Temp;Humidity;BMP_temperature;BMP_pressure;BME280_temperature;BME280_humidity;BME280_pressure;Samples;Min_cycle;Max_cycle;Signal;HPM_P1;HPM_P2
2023/09/04 00:00:53;;;;;;;10.38;8.73;;;;;;;11.90;100.00;102600.97;5040459;28;20029;-77
2023/09/04 00:03:19;;;;;;;10.68;9.15;;;;;;;11.89;100.00;102594.72;5054722;28;20055;-77
2023/09/04 00:05:45;;;;;;;10.00;8.88;;;;;;;11.87;100.00;102595.91;5054555;28;20397;-77
2023/09/04 00:08:11;;;;;;;10.32;9.20;;;;;;;11.82;100.00;102609.88;5059916;28;20025;-77
2023/09/04 00:10:37;;;;;;;9.27;8.07;;;;;;;11.79;100.00;102602.94;5054692;28;20029;-77
2023/09/04 00:13:02;;;;;;;9.93;8.80;;;;;;;11.77;100.00;102594.16;5061739;28;20473;-77
2023/09/04 00:15:30;;;;;;;11.10;9.20;;;;;;;11.80;100.00;102595.72;5052216;28;20115;-77
2023/09/04 00:17:56;;;;;;;10.63;9.15;;;;;;;11.82;100.00;102594.53;5053497;28;20083;-77
2023/09/04 00:20:21;;;;;;;8.98;8.07;;;;;;;11.79;100.00;102599.41;5037406;28;20041;-77
2023/09/04 00:22:46;;;;;;;10.85;9.15;;;;;;;11.77;100.00;102590.63;5056273;28;20095;-77
2023/09/04 00:25:12;;;;;;;9.93;8.93;;;;;;;11.75;100.00;102587.25;5051189;28;20029;-77
2023/09/04 00:27:37;;;;;;;10.95;9.65;;;;;;;11.77;100.00;102590.63;5051227;28;20020;-77
2023/09/04 00:30:03;;;;;;;11.02;9.55;;;;;;;11.80;100.00;102591.16;5053456;28;20045;-77
2023/09/04 00:32:28;;;;;;;11.85;10.65;;;;;;;11.88;100.00;102584.94;5053133;28;20025;-77
2023/09/04 00:34:54;;;;;;;10.32;9.23;;;;;;;11.81;100.00;102598.22;5039792;28;20018;-77
2023/09/04 00:37:22;;;;;;;11.55;9.73;;;;;;;11.78;100.00;102592.31;5040581;28;20490;-77
2023/09/04 00:39:47;;;;;;;10.88;9.68;;;;;;;11.82;100.00;102599.09;5055653;28;20568;-77
2023/09/04 00:42:15;;;;;;;10.52;9.30;;;;;;;11.83;100.00;102600.75;5060887;28;20028;-77
2023/09/04 00:44:44;;;;;;;11.60;10.40;;;;;;;11.85;100.00;102590.66;5062066;22;20055;-77
2023/09/04 00:47:14;;;;;;;12.68;10.15;;;;;;;11.87;100.00;102590.50;5072369;28;20037;-77
2023/09/04 00:49:39;;;;;;;10.07;9.05;;;;;;;11.82;100.00;102593.69;5072789;28;20025;-77
2023/09/04 00:52:05;;;;;;;10.30;8.82;;;;;;;11.83;100.00;102589.97;5054964;28;20025;-77
2023/09/04 00:54:31;;;;;;;10.90;9.35;;;;;;;11.81;100.00;102592.00;5074221;28;20020;-77
2023/09/04 00:56:56;;;;;;;9.30;8.38;;;;;;;11.76;100.00;102588.94;5055461;28;20020;-77
2023/09/04 00:59:23;;;;;;;9.57;8.57;;;;;;;11.72;100.00;102591.13;5072293;28;20043;-77
2023/09/04 01:01:48;;;;;;;10.18;8.95;;;;;;;11.63;100.00;102590.25;5057381;28;20056;-77
2023/09/04 01:04:14;;;;;;;9.35;8.45;;;;;;;11.56;100.00;102580.25;5071299;28;20044;-77
2023/09/04 01:06:39;;;;;;;11.65;9.55;;;;;;;11.50;100.00;102576.31;5073407;28;20036;-76
2023/09/04 01:09:05;;;;;;;10.45;9.35;;;;;;;11.43;100.00;102578.00;5074174;28;20032;-77
2023/09/04 01:11:40;;;;;;;10.00;8.82;;;;;;;11.37;100.00;102574.09;5073386;28;20036;-77
2023/09/04 01:14:19;;;;;;;9.75;8.75;;;;;;;11.34;100.00;102580.63;5047671;28;20105;-77
2023/09/04 01:16:44;;;;;;;11.13;9.10;;;;;;;11.32;100.00;102577.25;5036720;28;20104;-77
2023/09/04 01:19:13;;;;;;;10.27;9.15;;;;;;;11.34;100.00;102585.19;5037535;28;20017;-77
2023/09/04 01:21:38;;;;;;;10.10;9.05;;;;;;;11.32;100.00;102579.94;5058106;28;20060;-76
2023/09/04 01:24:04;;;;;;;10.52;8.90;;;;;;;11.30;100.00;102584.63;5056889;28;20032;-76
2023/09/04 01:27:06;;;;;;;10.50;9.40;;;;;;;11.33;100.00;102592.41;5085157;28;20511;-77
2023/09/04 01:29:38;;;;;;;9.63;8.43;;;;;;;11.31;100.00;102586.34;5055724;28;20430;-77
2023/09/04 01:32:28;;;;;;;11.25;9.25;;;;;;;11.29;100.00;102582.97;5062475;28;20033;-77
2023/09/04 01:34:53;;;;;;;9.88;8.80;;;;;;;11.27;100.00;102587.69;5041103;28;20027;-77
2023/09/04 01:37:19;;;;;;;10.55;9.10;;;;;;;11.22;100.00;102588.13;5073292;28;20021;-76
2023/09/04 01:39:45;;;;;;;10.25;8.68;;;;;;;11.22;100.00;102585.44;5055440;28;20036;-77
2023/09/04 01:42:10;;;;;;;9.95;8.90;;;;;;;11.18;100.00;102589.47;5055588;28;20024;-77
2023/09/04 01:44:35;;;;;;;11.48;9.25;;;;;;;11.19;100.00;102587.59;5073553;28;20051;-77
2023/09/04 01:47:01;;;;;;;10.30;8.40;;;;;;;11.15;100.00;102586.22;5072676;28;20043;-77
2023/09/04 01:49:26;;;;;;;9.77;8.48;;;;;;;11.11;100.00;102582.19;5073802;28;20032;-77
2023/09/04 01:51:53;;;;;;;9.82;8.82;;;;;;;11.07;100.00;102579.78;5072715;28;20289;-77
2023/09/04 01:54:18;;;;;;;11.00;9.32;;;;;;;11.06;100.00;102585.31;5073884;28;20032;-77
2023/09/04 01:56:44;;;;;;;9.32;8.43;;;;;;;11.02;100.00;102573.19;5075194;28;20031;-76
2023/09/04 01:59:10;;;;;;;9.77;8.75;;;;;;;11.01;100.00;102566.94;5073438;28;20028;-77
2023/09/04 02:01:35;;;;;;;12.63;9.98;;;;;;;11.00;100.00;102581.41;5075108;28;20044;-76
2023/09/04 02:04:00;;;;;;;9.18;8.23;;;;;;;10.96;100.00;102580.03;5079071;28;20027;-76
2023/09/04 02:06:28;;;;;;;12.10;9.75;;;;;;;10.91;100.00;102579.69;5087282;28;20027;-77
2023/09/04 02:08:53;;;;;;;10.00;8.95;;;;;;;10.90;100.00;102588.75;5076511;28;20123;-77
2023/09/04 02:11:25;;;;;;;10.40;9.30;;;;;;;10.85;100.00;102594.63;5073220;28;20044;-77
2023/09/04 02:13:50;;;;;;;9.45;8.30;;;;;;;10.83;100.00;102584.97;5077937;22;20453;-77
2023/09/04 02:16:16;;;;;;;10.60;9.00;;;;;;;10.88;100.00;102582.69;5062461;28;20025;-77
2023/09/04 02:18:41;;;;;;;9.38;8.48;;;;;;;10.83;100.00;102580.47;5067537;28;20108;-77
2023/09/04 02:21:07;;;;;;;9.63;8.60;;;;;;;10.81;100.00;102578.91;5050414;28;20059;-77
2023/09/04 02:23:32;;;;;;;12.48;9.38;;;;;;;10.81;100.00;102570.81;5055207;28;20029;-76
2023/09/04 02:25:58;;;;;;;9.05;8.10;;;;;;;10.76;100.00;102572.16;5052933;28;20029;-76
2023/09/04 02:28:26;;;;;;;9.63;8.20;;;;;;;10.72;100.00;102567.22;5051122;28;20029;-76
2023/09/04 02:30:51;;;;;;;9.82;8.82;;;;;;;10.70;100.00;102569.22;5052730;28;20021;-76
2023/09/04 02:33:17;;;;;;;9.88;8.57;;;;;;;10.65;100.00;102572.38;5051019;28;20029;-75
2023/09/04 02:35:42;;;;;;;11.07;9.82;;;;;;;10.62;100.00;102572.69;5054476;28;20330;-76
2023/09/04 02:38:07;;;;;;;11.50;10.07;;;;;;;10.61;100.00;102562.91;5068470;28;20386;-77
2023/09/04 02:40:36;;;;;;;11.68;9.40;;;;;;;10.69;100.00;102570.22;5075210;28;20033;-76
2023/09/04 02:43:02;;;;;;;11.20;9.20;;;;;;;10.67;100.00;102566.84;5034631;28;20064;-75
2023/09/04 02:45:27;;;;;;;11.45;9.20;;;;;;;10.61;100.00;102557.53;5059793;28;20033;-75
2023/09/04 02:47:52;;;;;;;10.55;9.18;;;;;;;10.53;100.00;102550.22;5054219;28;20021;-75
2023/09/04 02:50:18;;;;;;;10.32;9.23;;;;;;;10.50;100.00;102560.47;5053092;28;20515;-75
2023/09/04 02:52:44;;;;;;;10.07;8.55;;;;;;;10.46;100.00;102560.75;5052884;28;20032;-76
2023/09/04 02:55:09;;;;;;;10.57;8.98;;;;;;;10.46;100.00;102560.75;5053125;28;20029;-75
2023/09/04 02:57:35;;;;;;;12.02;9.93;;;;;;;10.46;100.00;102563.47;5052718;28;20032;-76
2023/09/04 03:00:00;;;;;;;10.27;9.02;;;;;;;10.43;100.00;102555.69;5053555;28;20086;-75
2023/09/04 03:02:26;;;;;;;13.15;10.88;;;;;;;10.37;100.00;102552.72;5035704;28;20021;-75
2023/09/04 03:04:55;;;;;;;12.25;10.73;;;;;;;10.34;100.00;102545.81;5052245;28;20039;-75
2023/09/04 03:07:22;;;;;;;11.55;9.75;;;;;;;10.31;100.00;102543.44;5052960;28;20041;-75
2023/09/04 03:09:47;;;;;;;12.80;9.88;;;;;;;10.31;100.00;102541.59;5053126;28;20032;-75
2023/09/04 03:12:12;;;;;;;10.65;9.30;;;;;;;10.24;100.00;102547.72;5051100;28;20416;-76
2023/09/04 03:14:38;;;;;;;10.88;9.00;;;;;;;10.19;100.00;102540.09;5053228;28;20398;-76
2023/09/04 03:17:04;;;;;;;10.00;8.82;;;;;;;10.14;100.00;102537.88;5054091;28;20067;-76
2023/09/04 03:19:30;;;;;;;11.48;9.18;;;;;;;10.11;100.00;102538.19;5068443;22;20468;-75
2023/09/04 03:21:55;;;;;;;11.10;9.55;;;;;;;10.06;100.00;102540.47;5075633;28;20036;-75
2023/09/04 03:24:21;;;;;;;10.90;9.02;;;;;;;10.01;100.00;102537.41;5097339;28;20031;-75
2023/09/04 03:26:46;;;;;;;13.95;10.90;;;;;;;9.97;100.00;102536.00;5095814;28;20089;-76
2023/09/04 03:29:12;;;;;;;10.98;9.82;;;;;;;9.94;100.00;102539.00;5097493;28;20024;-76
2023/09/04 03:31:38;;;;;;;11.10;9.63;;;;;;;9.90;100.00;102535.78;5095969;28;20024;-76
2023/09/04 03:34:05;;;;;;;11.50;9.82;;;;;;;9.84;100.00;102534.53;5095812;28;20028;-75
2023/09/04 03:36:30;;;;;;;11.93;9.57;;;;;;;9.80;100.00;102534.97;5097597;28;20047;-75
2023/09/04 03:38:56;;;;;;;11.30;9.18;;;;;;;9.77;100.00;102532.59;5100173;28;20016;-76
2023/09/04 03:41:21;;;;;;;10.32;9.15;;;;;;;9.75;100.00;102535.44;5099392;28;20449;-76
2023/09/04 03:43:47;;;;;;;11.45;9.88;;;;;;;9.73;100.00;102537.41;5098977;28;20035;-76
2023/09/04 03:46:13;;;;;;;11.75;9.93;;;;;;;9.70;100.00;102538.56;5098448;28;20032;-76
2023/09/04 03:48:38;;;;;;;10.98;9.30;;;;;;;9.67;100.00;102543.41;5101175;28;20028;-76
2023/09/04 03:51:03;;;;;;;10.95;9.43;;;;;;;9.65;100.00;102540.84;5105187;28;20150;-75
2023/09/04 03:53:29;;;;;;;11.57;9.05;;;;;;;9.66;100.00;102537.16;5108137;28;20032;-76
2023/09/04 03:56:02;;;;;;;12.02;10.20;;;;;;;9.68;100.00;102539.72;5110346;28;20024;-75
2023/09/04 03:58:27;;;;;;;14.98;10.85;;;;;;;9.66;100.00;102536.34;5097423;28;20035;-75
2023/09/04 04:00:57;;;;;;;13.63;10.38;;;;;;;9.66;100.00;102537.16;5097220;28;20044;-75
2023/09/04 04:03:22;;;;;;;11.77;9.90;;;;;;;9.70;100.00;102537.75;5094772;28;20040;-76
2023/09/04 04:05:48;;;;;;;12.32;10.38;;;;;;;9.68;100.00;102534.34;5095697;28;20020;-76
2023/09/04 04:08:13;;;;;;;11.82;9.52;;;;;;;9.64;100.00;102538.31;5094829;28;20028;-76
2023/09/04 04:10:39;;;;;;;12.45;9.98;;;;;;;9.62;100.00;102529.56;5095354;28;20016;-77
2023/09/04 04:13:05;;;;;;;13.60;11.13;;;;;;;9.58;100.00;102528.16;5094102;28;20388;-79
2023/09/04 04:15:30;;;;;;;13.13;10.00;;;;;;;9.52;100.00;102529.59;5094797;28;20032;-79
2023/09/04 04:17:55;;;;;;;10.90;9.57;;;;;;;9.45;100.00;102534.72;5093966;28;20024;-75
2023/09/04 04:20:22;;;;;;;11.25;9.23;;;;;;;9.41;100.00;102527.94;5094203;28;20040;-74
2023/09/04 04:22:47;;;;;;;12.15;9.05;;;;;;;9.38;100.00;102521.03;5094516;28;20035;-74
2023/09/04 04:25:13;;;;;;;11.48;9.07;;;;;;;9.36;100.00;102530.22;5095545;28;20012;-75
2023/09/04 04:27:42;;;;;;;16.05;11.70;;;;;;;9.42;100.00;102526.94;5093600;28;20020;-74
2023/09/04 04:30:08;;;;;;;17.08;11.90;;;;;;;9.44;100.00;102526.81;5094047;28;20040;-74
2023/09/04 04:32:34;;;;;;;13.52;10.63;;;;;;;9.38;100.00;102522.84;5094622;28;20551;-74
2023/09/04 04:35:02;;;;;;;14.32;10.93;;;;;;;9.34;100.00;102526.88;5096833;28;20028;-75
2023/09/04 04:37:31;;;;;;;11.52;10.10;;;;;;;9.28;100.00;102522.06;5102385;28;20476;-74
2023/09/04 04:39:56;;;;;;;12.13;10.40;;;;;;;9.29;100.00;102531.81;5094487;28;20032;-76
2023/09/04 04:42:25;;;;;;;13.60;10.77;;;;;;;9.34;100.00;102533.06;5094322;28;20031;-76
2023/09/04 04:44:50;;;;;;;14.93;11.55;;;;;;;9.31;100.00;102527.16;5095232;28;20533;-76
2023/09/04 04:47:15;;;;;;;12.00;9.73;;;;;;;9.25;100.00;102526.72;5094322;28;20020;-74
2023/09/04 04:49:41;;;;;;;13.23;10.60;;;;;;;9.22;100.00;102523.50;5093476;28;20032;-74
2023/09/04 04:52:06;;;;;;;14.43;10.25;;;;;;;9.18;100.00;102517.56;5095084;28;20038;-74
2023/09/04 04:54:31;;;;;;;;;;;;;;;9.13;100.00;102527.91;5094838;28;20027;-74
2023/09/04 04:56:57;;;;;;;11.17;9.17;;;;;;;9.14;100.00;102520.69;5093698;28;20360;-74
2023/09/04 04:59:22;;;;;;;;;;;;;;;9.10;100.00;102518.28;5095309;28;20361;-73
2023/09/04 05:01:48;;;;;;;12.20;9.80;;;;;;;9.14;100.00;102518.00;5094600;28;19912;-74
2023/09/04 05:04:13;;;;;;;12.57;9.88;;;;;;;9.23;100.00;102528.72;5094066;28;20045;-76
2023/09/04 05:06:38;;;;;;;18.60;12.45;;;;;;;9.33;100.00;102514.41;5094417;28;20503;-76
2023/09/04 05:09:05;;;;;;;16.63;12.43;;;;;;;9.46;100.00;102514.06;5094197;28;20040;-76
2023/09/04 05:11:30;;;;;;;19.98;13.75;;;;;;;9.55;100.00;102507.81;5094267;28;20035;-75
2023/09/04 05:13:56;;;;;;;18.10;12.98;;;;;;;9.61;100.00;102507.22;5110428;22;20072;-76
2023/09/04 05:16:27;;;;;;;17.58;12.82;;;;;;;9.69;100.00;102509.16;5095394;28;20503;-74
2023/09/04 05:18:53;;;;;;;18.63;13.45;;;;;;;9.82;100.00;102512.31;5093959;28;20047;-74
2023/09/04 05:21:20;;;;;;;18.58;13.60;;;;;;;9.92;100.00;102514.09;5095083;28;20454;-75
2023/09/04 05:23:47;;;;;;;18.67;13.88;;;;;;;10.08;100.00;102518.81;5093922;28;20023;-74
2023/09/04 05:26:15;;;;;;;18.52;13.55;;;;;;;10.21;100.00;102518.44;5099572;22;20110;-75
2023/09/04 05:28:41;;;;;;;16.08;12.52;;;;;;;10.33;100.00;102511.81;5095635;28;20082;-75
2023/09/04 05:31:06;;;;;;;16.00;12.98;;;;;;;10.42;100.00;102516.28;5095257;28;20020;-74
2023/09/04 05:33:32;;;;;;;15.30;12.20;;;;;;;10.50;100.00;102520.91;5093996;28;20508;-75
2023/09/04 05:35:58;;;;;;;14.63;11.80;;;;;;;10.59;100.00;102516.47;5095030;28;20036;-74
2023/09/04 05:38:24;;;;;;;13.07;11.25;;;;;;;10.67;100.00;102513.00;5094755;28;20039;-74
2023/09/04 05:40:54;;;;;;;14.57;11.23;;;;;;;10.76;100.00;102507.50;5094301;28;20024;-75
2023/09/04 05:43:19;;;;;;;12.65;10.52;;;;;;;10.87;100.00;102508.25;5077467;28;20081;-75
2023/09/04 05:45:45;;;;;;;13.95;10.68;;;;;;;10.99;100.00;102512.34;5094023;28;20032;-75
2023/09/04 05:48:10;;;;;;;12.38;10.95;;;;;;;11.08;100.00;102510.56;5093898;28;20020;-75
2023/09/04 05:50:36;;;;;;;13.02;11.15;;;;;;;11.17;100.00;102522.22;5093435;28;20020;-74
2023/09/04 05:53:01;;;;;;;12.15;10.52;;;;;;;11.28;100.00;102521.97;5093109;28;20032;-74
2023/09/04 05:55:27;;;;;;;13.98;11.02;;;;;;;11.38;100.00;102524.56;5095862;28;20028;-75
2023/09/04 05:57:52;;;;;;;11.70;10.48;;;;;;;11.50;100.00;102517.84;5097109;28;20028;-75
2023/09/04 06:00:25;;;;;;;10.95;9.88;;;;;;;11.65;100.00;102525.31;5093226;28;20038;-75
2023/09/04 06:02:50;;;;;;;10.65;9.52;;;;;;;11.81;100.00;102530.78;5094264;28;20051;-74
2023/09/04 06:05:16;;;;;;;10.27;9.25;;;;;;;12.00;100.00;102519.91;5090568;28;20031;-74
2023/09/04 06:07:41;;;;;;;10.63;9.23;;;;;;;12.31;100.00;102527.38;5093955;28;20023;-75
2023/09/04 06:10:07;;;;;;;8.73;7.93;;;;;;;13.10;100.00;102524.94;5093224;28;20020;-74
2023/09/04 06:12:33;;;;;;;8.40;7.60;;;;;;;14.50;100.00;102527.97;5110959;22;20008;-75
2023/09/04 06:14:58;;;;;;;9.52;7.80;;;;;;;16.05;88.66;102525.63;5069053;28;20038;-75
2023/09/04 06:17:23;;;;;;;8.02;7.22;;;;;;;17.33;77.75;102532.94;5073897;28;20025;-75
2023/09/04 06:19:49;;;;;;;8.20;7.22;;;;;;;18.39;73.74;102533.53;5074333;28;20025;-75
2023/09/04 06:22:14;;;;;;;10.50;7.07;;;;;;;18.72;69.35;102532.69;5074020;28;20042;-75
2023/09/04 06:24:40;;;;;;;9.95;7.40;;;;;;;19.24;67.17;102532.81;5073706;28;20025;-75
2023/09/04 06:27:05;;;;;;;10.48;6.65;;;;;;;19.64;65.84;102525.56;5073687;28;20020;-74
2023/09/04 06:29:31;;;;;;;7.75;7.05;;;;;;;20.17;62.83;102529.06;5069119;28;20040;-75
2023/09/04 06:31:56;;;;;;;8.88;7.00;;;;;;;19.97;63.64;102530.88;5053559;28;20024;-75
2023/09/04 06:34:21;;;;;;;7.85;6.57;;;;;;;20.19;63.04;102529.69;5054329;28;20025;-75
2023/09/04 06:36:47;;;;;;;7.70;6.90;;;;;;;20.12;62.61;102529.75;5053675;28;20047;-75
2023/09/04 06:39:12;;;;;;;7.50;6.70;;;;;;;20.32;61.97;102524.13;5053458;28;20021;-75
2023/09/04 06:41:41;;;;;;;7.70;6.90;;;;;;;20.69;60.21;102532.47;5053908;28;20029;-75
2023/09/04 06:44:09;;;;;;;9.20;6.85;;;;;;;20.70;60.63;102538.78;5054855;28;20469;-75
2023/09/04 06:46:34;;;;;;;7.05;6.35;;;;;;;21.37;58.02;102535.38;5061135;28;20079;-75
2023/09/04 06:49:00;;;;;;;9.13;6.40;;;;;;;21.42;58.06;102546.50;5056513;28;20132;-74
2023/09/04 06:51:29;;;;;;;7.40;6.57;;;;;;;22.19;55.92;102539.59;5055716;28;20023;-75
2023/09/04 06:53:54;;;;;;;7.35;6.65;;;;;;;22.04;55.50;102537.28;5054528;28;20039;-75
2023/09/04 06:56:20;;;;;;;6.43;5.78;;;;;;;22.46;54.10;102536.44;5055338;28;20100;-75
2023/09/04 06:58:45;;;;;;;7.85;6.40;;;;;;;22.28;54.54;102534.63;5059259;28;20036;-75
2023/09/04 07:01:11;;;;;;;7.80;6.65;;;;;;;22.63;54.04;102533.00;5058075;28;20028;-75
2023/09/04 07:03:36;;;;;;;6.82;6.22;;;;;;;23.10;52.52;102541.25;5059744;28;20032;-75
2023/09/04 07:06:02;;;;;;;7.10;6.05;;;;;;;22.73;52.88;102536.03;5057823;28;20440;-74
2023/09/04 07:08:30;;;;;;;6.88;6.28;;;;;;;22.57;53.73;102540.28;5056008;28;20093;-74
2023/09/04 07:10:55;;;;;;;8.60;6.55;;;;;;;22.45;53.98;102537.53;5055982;28;20044;-75
2023/09/04 07:13:21;;;;;;;6.55;5.78;;;;;;;23.40;51.38;102540.28;5056599;28;20045;-75
2023/09/04 07:15:46;;;;;;;7.20;6.50;;;;;;;22.99;53.19;102534.69;5056311;28;20028;-76
2023/09/04 07:18:12;;;;;;;7.63;6.82;;;;;;;22.50;55.38;102540.41;5055695;28;20043;-74
2023/09/04 07:23:04;;;;;;;7.57;6.80;;;;;;;23.24;51.99;102543.78;5084281;22;20470;-74
2023/09/04 07:25:30;;;;;;;7.20;6.25;;;;;;;23.24;53.10;102543.78;5078570;28;20039;-75
2023/09/04 07:27:56;;;;;;;7.85;5.80;;;;;;;23.58;52.01;102535.69;5077361;28;20029;-76
2023/09/04 07:30:21;;;;;;;6.55;5.97;;;;;;;24.05;49.70;102537.44;5076341;28;20105;-75
2023/09/04 07:32:47;;;;;;;6.78;6.07;;;;;;;24.05;51.18;102537.44;5130652;22;20017;-75
2023/09/04 07:35:37;;;;;;;6.40;5.80;;;;;;;25.24;47.94;102548.38;5055495;28;20485;-76
2023/09/04 07:38:03;;;;;;;6.00;5.50;;;;;;;24.50;48.82;102535.72;5054506;28;20338;-76
2023/09/04 07:40:28;;;;;;;6.85;5.70;;;;;;;25.00;48.34;102544.22;5056176;28;20032;-76
2023/09/04 07:42:54;;;;;;;6.43;5.82;;;;;;;24.67;48.56;102543.97;5057831;28;20051;-75
2023/09/04 07:45:24;;;;;;;5.85;5.25;;;;;;;24.95;47.29;102545.78;5059018;28;20028;-76
2023/09/04 07:47:49;;;;;;;6.60;6.00;;;;;;;25.34;46.72;102542.16;5063207;28;20028;-75
2023/09/04 07:50:14;;;;;;;6.95;5.35;;;;;;;25.76;46.98;102539.94;5061220;28;20029;-75
2023/09/04 07:52:40;;;;;;;5.57;4.97;;;;;;;26.57;45.15;102554.78;5058874;28;20028;-75
2023/09/04 07:55:08;;;;;;;8.32;5.72;;;;;;;27.07;43.33;102556.25;5057977;28;20227;-74
2023/09/04 07:57:34;;;;;;;6.55;4.88;;;;;;;26.73;44.00;102550.22;5060007;28;20025;-75
2023/09/04 07:59:59;;;;;;;5.88;5.20;;;;;;;26.35;43.70;102549.38;5066123;28;20031;-75
2023/09/04 08:02:25;;;;;;;5.97;5.35;;;;;;;27.06;43.07;102540.75;5068970;28;20047;-75
2023/09/04 08:04:50;;;;;;;5.90;5.40;;;;;;;27.79;40.76;102552.13;5056884;28;20021;-76
2023/09/04 08:07:16;;;;;;;5.82;5.32;;;;;;;27.50;42.61;102547.91;5053708;28;20021;-75
2023/09/04 08:09:44;;;;;;;5.88;5.32;;;;;;;27.22;42.32;102543.59;5055312;28;20033;-75
2023/09/04 08:12:09;;;;;;;5.93;5.40;;;;;;;27.34;41.67;102546.16;5055288;28;20025;-75
2023/09/04 08:14:36;;;;;;;6.10;5.50;;;;;;;27.14;43.03;102544.13;5054980;28;20082;-75
2023/09/04 08:17:04;;;;;;;5.75;5.18;;;;;;;28.21;41.33;102539.22;5055389;28;20037;-75
2023/09/04 08:19:30;;;;;;;6.43;5.80;;;;;;;27.98;40.67;102546.91;5055018;28;20052;-75
2023/09/04 08:21:58;;;;;;;5.47;4.97;;;;;;;29.11;39.13;102540.50;5056749;28;20029;-75
2023/09/04 08:24:24;;;;;;;5.70;5.20;;;;;;;29.47;38.32;102537.59;5056818;28;20025;-76
2023/09/04 08:26:49;;;;;;;6.03;5.22;;;;;;;29.40;37.77;102534.28;5056561;28;20085;-75
2023/09/04 08:29:15;;;;;;;4.85;4.25;;;;;;;30.49;36.26;102539.09;5056576;28;20354;-75
2023/09/04 08:31:40;;;;;;;5.60;5.10;;;;;;;29.46;37.82;102532.31;5056707;28;20029;-75
2023/09/04 08:34:06;;;;;;;6.30;5.70;;;;;;;28.08;40.79;102532.25;5059473;28;20053;-78
2023/09/04 08:36:34;;;;;;;5.60;5.18;;;;;;;28.63;40.52;102524.22;5055134;28;20041;-76
2023/09/04 08:38:59;;;;;;;5.90;5.30;;;;;;;28.31;41.83;102525.38;5055288;28;20216;-76
2023/09/04 08:41:26;;;;;;;5.50;4.80;;;;;;;28.91;40.03;102521.16;5054645;28;20021;-75
2023/09/04 08:43:51;;;;;;;5.55;5.05;;;;;;;28.81;40.50;102520.06;5052391;28;20043;-75
2023/09/04 08:46:17;;;;;;;5.70;5.10;;;;;;;29.67;38.39;102518.34;5034599;28;20029;-76
2023/09/04 08:48:43;;;;;;;5.55;5.03;;;;;;;29.98;37.54;102519.00;5019228;28;20476;-76
2023/09/04 08:51:08;;;;;;;6.57;5.18;;;;;;;29.97;37.81;102506.22;5052911;28;20047;-76
2023/09/04 08:53:38;;;;;;;6.78;4.78;;;;;;;30.38;36.56;102516.97;5053480;28;20045;-76
2023/09/04 08:56:04;;;;;;;6.35;5.30;;;;;;;30.38;36.90;102522.50;5035106;28;20128;-75
2023/09/04 08:58:29;;;;;;;5.25;4.60;;;;;;;30.32;37.04;102515.38;5053892;28;20449;-75
2023/09/04 09:00:57;;;;;;;5.85;4.88;;;;;;;29.32;38.83;102507.94;5052641;28;20029;-75
2023/09/04 09:03:22;;;;;;;5.78;5.15;;;;;;;30.68;36.33;102514.19;5034974;28;20029;-75
2023/09/04 09:05:48;;;;;;;5.38;4.88;;;;;;;30.68;36.05;102516.97;5054452;28;20362;-75
2023/09/04 09:08:15;;;;;;;5.18;4.68;;;;;;;30.72;36.88;102506.94;5047181;28;20113;-74
2023/09/04 09:10:40;;;;;;;5.28;4.78;;;;;;;31.86;35.00;102502.69;5035495;28;20027;-74
2023/09/04 09:13:07;;;;;;;5.25;4.75;;;;;;;31.19;36.64;102500.84;5054730;28;20013;-75
2023/09/04 09:15:33;;;;;;;5.13;4.63;;;;;;;31.02;36.72;102493.78;5053359;28;20436;-75
2023/09/04 09:17:58;;;;;;;5.55;4.95;;;;;;;29.76;38.38;102492.47;5035049;28;20238;-76
2023/09/04 09:20:31;;;;;;;7.32;4.75;;;;;;;29.40;38.57;102489.91;5054321;28;20388;-76
2023/09/04 09:25:39;;;;;;;4.93;4.53;;;;;;;30.51;37.64;102497.97;5086971;22;20049;-76
2023/09/04 09:28:20;;;;;;;5.57;4.55;;;;;;;29.43;39.49;102485.72;5040211;28;20151;-76
2023/09/04 09:30:59;;;;;;;5.90;5.30;;;;;;;29.36;39.44;102488.81;5037643;28;20028;-75
2023/09/04 09:33:25;;;;;;;5.32;4.72;;;;;;;29.05;40.58;102486.16;5073522;28;20106;-75
2023/09/04 09:35:50;;;;;;;6.28;5.00;;;;;;;29.63;39.69;102484.78;5056226;28;20024;-75
2023/09/04 09:38:15;;;;;;;5.10;4.70;;;;;;;30.70;36.59;102496.13;5037754;28;20468;-76
2023/09/04 09:40:44;;;;;;;5.57;5.05;;;;;;;29.82;37.74;102482.13;5073695;28;20487;-75
2023/09/04 09:43:09;;;;;;;6.38;4.60;;;;;;;30.58;36.51;102487.34;5055641;28;20040;-76
2023/09/04 09:45:35;;;;;;;7.15;4.53;;;;;;;30.03;37.27;102480.06;5072358;28;20016;-76
2023/09/04 09:48:07;;;;;;;5.10;4.18;;;;;;;30.81;36.33;102484.88;5073698;28;20084;-76
2023/09/04 09:50:33;;;;;;;5.35;4.85;;;;;;;31.00;35.84;102485.75;5073728;28;20086;-75
2023/09/04 09:52:59;;;;;;;4.20;3.90;;;;;;;30.68;34.38;102476.13;5053578;28;20060;-75
2023/09/04 09:55:25;;;;;;;3.95;3.60;;;;;;;30.35;34.40;102477.81;5072046;28;20024;-75
2023/09/04 09:57:52;;;;;;;4.10;3.70;;;;;;;32.08;32.82;102476.13;5074186;28;20107;-75
2023/09/04 10:00:18;;;;;;;5.57;4.45;;;;;;;31.68;34.19;102473.69;5072332;28;20048;-76
2023/09/04 10:02:43;;;;;;;4.63;4.15;;;;;;;31.47;32.81;102467.63;5055001;28;20368;-75
2023/09/04 10:05:09;;;;;;;5.20;4.20;;;;;;;31.04;33.51;102460.13;5072980;28;20025;-75
2023/09/04 10:07:35;;;;;;;3.80;3.50;;;;;;;31.48;34.43;102458.97;5071189;28;20088;-75
2023/09/04 10:10:05;;;;;;;4.13;3.67;;;;;;;31.85;33.40;102453.69;5054559;28;20032;-76
2023/09/04 10:12:45;;;;;;;4.47;4.07;;;;;;;32.40;32.39;102443.81;5073462;28;20417;-76
2023/09/04 10:15:11;;;;;;;5.20;4.05;;;;;;;31.58;34.05;102444.06;5072387;28;20032;-76
2023/09/04 10:17:40;;;;;;;4.63;4.22;;;;;;;31.09;34.58;102444.19;5038462;28;20043;-76
2023/09/04 10:20:06;;;;;;;4.10;3.80;;;;;;;31.30;34.62;102444.75;5072498;28;20039;-75
2023/09/04 10:22:36;;;;;;;4.70;4.20;;;;;;;30.91;34.90;102443.03;5072595;28;20025;-76
2023/09/04 10:25:07;;;;;;;5.97;4.35;;;;;;;30.66;36.31;102438.63;5054718;28;20352;-75
2023/09/04 10:27:38;;;;;;;4.18;3.78;;;;;;;31.65;33.69;102449.25;5072481;28;20027;-75
2023/09/04 10:30:05;;;;;;;4.53;4.10;;;;;;;31.17;34.04;102451.06;5037998;28;20024;-75
2023/09/04 10:32:31;;;;;;;4.20;3.80;;;;;;;31.45;34.30;102446.50;5072368;28;20431;-75
2023/09/04 10:34:56;;;;;;;4.75;4.35;;;;;;;31.34;34.69;102447.75;5055294;28;20012;-75
2023/09/04 10:37:22;;;;;;;4.10;3.70;;;;;;;32.73;32.60;102444.56;5054471;28;20036;-75
2023/09/04 10:39:47;;;;;;;4.03;3.60;;;;;;;32.91;32.69;102442.81;5073025;28;20252;-75
2023/09/04 10:42:13;;;;;;;4.38;4.00;;;;;;;32.76;32.19;102441.16;5038858;28;20033;-75
2023/09/04 10:44:56;;;;;;;4.55;4.15;;;;;;;31.87;34.01;102432.75;5072708;28;20075;-76
2023/09/04 10:47:22;;;;;;;4.13;3.65;;;;;;;33.93;30.53;102435.16;5072958;28;20400;-75
2023/09/04 10:49:47;;;;;;;4.53;3.80;;;;;;;33.60;31.37;102432.59;5086115;22;20065;-75
2023/09/04 10:52:13;;;;;;;5.25;3.75;;;;;;;33.46;30.91;102431.84;5050838;28;20014;-75
2023/09/04 10:54:43;;;;;;;4.18;3.65;;;;;;;32.77;32.16;102430.81;5035665;28;20022;-76
2023/09/04 10:57:17;;;;;;;3.97;3.35;;;;;;;33.62;31.20;102430.31;5041018;28;20057;-76
2023/09/04 10:59:56;;;;;;;4.57;4.13;;;;;;;32.91;30.75;102428.03;5047189;28;20022;-75
2023/09/04 11:02:29;;;;;;;4.45;3.95;;;;;;;32.16;32.04;102423.31;5043031;28;20029;-76
2023/09/04 11:04:56;;;;;;;3.57;3.27;;;;;;;33.22;30.75;102417.00;5036502;28;20064;-76
2023/09/04 11:07:21;;;;;;;4.47;4.00;;;;;;;33.43;30.45;102419.34;5032389;28;20032;-76
2023/09/04 11:09:47;;;;;;;5.35;4.70;;;;;;;32.30;32.44;102411.41;5032767;28;20454;-75
2023/09/04 11:12:22;;;;;;;5.30;4.78;;;;;;;32.85;30.29;102421.75;5034597;28;20025;-76
2023/09/04 11:14:48;;;;;;;4.72;3.78;;;;;;;31.94;32.66;102414.84;5033878;28;20446;-76
2023/09/04 11:17:16;;;;;;;6.07;4.55;;;;;;;32.28;31.23;102400.56;5034607;28;20370;-76
2023/09/04 11:19:43;;;;;;;5.05;3.72;;;;;;;32.63;32.09;102403.75;5036181;28;20041;-76